x

Southeast Bering Sea -205nm Wnw Of Dutch Harbor, Ak (46073) Wave Buoy

7:50am - Tue 24th Jan 2017 All times are UTC.

  • Sig Wave height 16.4ft
  • Swell Direction
  • Peak Period 11s
  • Average Period 8s
  • Wind
    25mph, 29mph gusts
  • Sea Temp 38°f
  • Sea Pressure 981.5mb

More Historic Weather Station data

Upgrade to MSW Pro to gain access to the past 30 days of data for over 8000 Wavebouys and Weather Stations around the globe.

Join Pro

Comparision Forecast

View Surf forecast
   
Tue 01/24 7:50am 16.5ft 11s 8s 25 29 mph 981.5mb 38f
6:50am 17.5ft 11s 8s 25 31 mph 980.7mb 38f
5:50am 17.5ft 11s 8s 27 34 mph 979.6mb 38f
4:50am 17ft 11s 9s 27 34 mph 978.8mb 38f
3:50am 17.5ft 10s 8s 27 34 mph 977.8mb 38f
2:50am 17.5ft 11s 8s 29 36 mph 976.5mb 38f
1:50am 18.5ft 11s 8s 31 40 mph 975.2mb 38f
12:50am 20.5ft 11s 9s 34 40 mph 973.7mb 38f
Mon 01/23 11:50pm 19.5ft 12s 9s 34 43 mph 972.6mb 38f
10:50pm 20.5ft 12s 9s 34 43 mph 971.8mb 38f
9:50pm 18.5ft 11s 8s 34 40 mph 970.6mb 38f
8:50pm 18.5ft 13s 8s 34 45 mph 969.5mb 38f
7:50pm 21.5ft 12s 9s 34 43 mph 968.2mb 38f
6:50pm 21ft 14s 9s 34 40 mph 966.8mb 38f
5:50pm 20ft 12s 9s 31 40 mph 965.4mb 38f
4:50pm 19.5ft 13s 9s 29 36 mph 964.3mb 38f
3:50pm 21ft 13s 9s 27 34 mph 963.6mb 40f
2:50pm 20.5ft 13s 9s 22 29 mph 962.8mb 54f
12:50pm 20ft 14s  -  13 20 mph 961.6mb 68f
11:50am 20ft 14s 9s 18 25 mph 961.1mb 83f
10:50am 23.5ft 14s 9s 20 27 mph 960.6mb 79f
9:50am 25.5ft 13s 9s 29 36 mph 959.9mb 78f
8:50am 24.5ft 14s 10s 25 31 mph 959.6mb 63f
7:50am 26ft 11s 10s 31 40 mph 959.4mb 61f
6:50am 24ft 12s 9s 38 49 mph 959mb 51f
5:50am 29.5ft 14s 10s 43 54 mph 959mb 38f
4:50am 34ft 14s 11s 45 56 mph 958.8mb 38f
3:50am 33ft 13s 11s 45 58 mph 959.4mb 38f
2:50am 33ft 13s 11s 45 67 mph 960.1mb 38f
1:50am 32ft 13s 10s 49 60 mph 961mb 38f
12:50am 28.5ft 13s 10s 47 60 mph 963mb 38f
Sun 01/22 11:50pm 29ft 13s 10s 49 65 mph 964.9mb 38f
10:50pm 28.5ft 14s 10s 51 65 mph 966.9mb 38f
9:50pm 27ft 12s 10s 49 60 mph 969.5mb 38f
8:50pm 27ft 11s 9s 51 63 mph 972mb 38f
7:50pm 23.5ft 11s 9s 49 63 mph 974.6mb 38f
6:50pm 22.5ft 11s 9s 45 58 mph 977.2mb 38f
5:50pm 18.5ft 11s 8s 43 51 mph 980.4mb 38f
4:50pm 19.5ft 10s 8s 45 56 mph 982.7mb 38f
3:50pm 18.5ft 9s 8s 45 56 mph 985.8mb 38f
2:50pm 15.5ft 9s 7s 43 51 mph 987.7mb 38f
1:50pm 12.5ft 8s 6s 40 51 mph 990.9mb 38f
12:50pm 9.5ft 8s 6s 36 47 mph 993.3mb 38f
11:50am 9ft 7s 6s 36 43 mph 996.1mb 38f
10:50am 7.5ft 6s 5s 31 38 mph 998.7mb 38f
9:50am 6.5ft 6s 5s 31 38 mph 1000.8mb 38f
8:50am 5.5ft 5s 5s 29 36 mph 1002.6mb 38f
7:50am 4.5ft 5s 4s 27 34 mph 1004.2mb 38f
6:50am 4ft 4s 4s 22 29 mph 1005.8mb 38f
5:50am 3.5ft 7s 4s 22 27 mph 1006.8mb 38f
4:50am 3.5ft 7s 5s 18 25 mph 1008.2mb 38f
3:50am 3.5ft 8s 5s 16 20 mph 1009.7mb 38f
2:50am 3.5ft 7s 5s 9 13 mph 1009.9mb 38f
1:50am 3.5ft 8s 6s 11 16 mph 1010.8mb 38f
12:50am 4ft 6s 6s 9 11 mph 1012.2mb 38f
Sat 01/21 11:50pm 4ft 7s 6s 4 9 mph 1012.5mb 38f
10:50pm 4.5ft 8s 6s 9 11 mph 1013.1mb 38f
9:50pm 4.5ft 7s 6s  -  4 mph 1014.2mb 38f
8:50pm 4.5ft 8s 6s 4 7 mph 1014.4mb 38f
7:50pm 4.5ft 8s 6s  -  mph 1015mb 38f
6:50pm 5ft 7s 6s 4 9 mph 1014.8mb 38f
5:50pm 5ft 8s 6s 4 9 mph 1015.1mb 38f
4:50pm 4.5ft 8s 6s 7 11 mph 1015.3mb 38f
3:50pm 5.5ft 8s 6s 4 9 mph 1015.5mb 38f
2:50pm 5.5ft 8s 6s  -  7 mph 1015.8mb 38f
1:50pm 6ft 8s 6s 4 9 mph 1015.8mb 38f
12:50pm 6ft 8s 6s 7 13 mph 1015.8mb 38f
11:50am 7ft 8s 6s 9 13 mph 1016mb 38f
10:50am 7ft 8s 6s 13 18 mph 1016mb 38f
9:50am 7ft 8s 6s 11 16 mph 1016.3mb 38f
8:50am 6.5ft 8s 6s 16 20 mph 1015.8mb 39f
7:50am 7ft 9s 6s 16 22 mph 1016.1mb 39f
6:50am 7ft 9s 6s 16 20 mph 1015.7mb 39f
5:50am 8ft 9s 7s 16 20 mph 1016mb 39f
4:50am 7.5ft 9s 6s 9 13 mph 1015.9mb 39f
3:50am 7ft 8s 6s 22 27 mph 1015.4mb 39f
2:50am 7.5ft 9s 7s 18 25 mph 1015.2mb 39f
1:50am 9ft 9s 7s 18 22 mph 1014.4mb 39f
12:50am 8ft 9s 7s 16 22 mph 1014mb 38f
Fri 01/20 11:50pm 9ft 9s 7s 13 18 mph 1013.8mb 38f
10:50pm 7.5ft 9s 6s 4 11 mph 1014mb 38f
9:50pm 8.5ft 9s 7s 13 18 mph 1013.3mb 38f
8:50pm 8ft 10s 6s 16 20 mph 1012.7mb 39f
7:50pm 9ft 10s 7s 20 29 mph 1012.1mb 39f
6:50pm 8.5ft 10s 6s 20 25 mph 1011.4mb 39f
5:50pm 9ft 10s 6s 20 27 mph 1010.5mb 39f
4:50pm 9.5ft 10s 7s 16 25 mph 1010mb 39f
3:50pm 9ft 11s 7s 18 25 mph 1009.3mb 39f
2:50pm 10ft 11s 7s 20 25 mph 1008.5mb 39f
1:50pm 11ft 11s 7s 20 25 mph 1008mb 39f
12:50pm 11ft 11s 7s 20 25 mph 1007.5mb 39f
11:50am 11.5ft 11s 7s 25 31 mph 1006.8mb 39f
10:50am 12.5ft 11s 8s 20 25 mph 1006.4mb 39f
9:50am 12ft 11s 8s 18 29 mph 1005.2mb 39f